Time;durP1;ratioP1;P1;durP2;ratioP2;P2;SDS_P1;SDS_P2;PMS_P1;PMS_P2;Temp;Humidity;BMP_temperature;BMP_pressure;BME280_temperature;BME280_humidity;BME280_pressure;Samples;Min_cycle;Max_cycle;Signal;HPM_P1;HPM_P2
2023/10/17 00:00:39;;;;;;;6.18;2.38;;;8.60;80.50;;;;;;5092073;28;20020;-69
2023/10/17 00:03:11;;;;;;;4.63;2.50;;;8.50;80.60;;;;;;5095238;28;20055;-69
2023/10/17 00:05:36;;;;;;;4.85;2.30;;;8.50;80.60;;;;;;5095535;28;20020;-68
2023/10/17 00:08:05;;;;;;;6.63;2.58;;;8.50;80.30;;;;;;5095346;28;20490;-67
2023/10/17 00:10:35;;;;;;;6.18;2.33;;;8.50;80.40;;;;;;5095424;28;20039;-68
2023/10/17 00:15:53;;;;;;;6.63;2.80;;;8.50;80.60;;;;;;5078513;28;20028;-67
2023/10/17 00:18:20;;;;;;;6.53;3.00;;;8.40;80.30;;;;;;5095635;28;20089;-68
2023/10/17 00:20:50;;;;;;;7.55;2.80;;;8.50;80.60;;;;;;5095535;28;20098;-67
2023/10/17 00:23:20;;;;;;;5.40;2.72;;;8.40;80.20;;;;;;5095768;28;20499;-68
2023/10/17 00:25:49;;;;;;;5.70;2.45;;;8.40;80.40;;;;;;5095626;28;20111;-67
2023/10/17 00:28:15;;;;;;;5.20;2.47;;;8.40;80.30;;;;;;5095267;28;20039;-67
2023/10/17 00:30:44;;;;;;;4.13;2.40;;;8.30;80.30;;;;;;5094260;28;20054;-67
2023/10/17 00:33:09;;;;;;;7.43;2.78;;;8.30;80.60;;;;;;5094939;28;20177;-68
2023/10/17 00:35:38;;;;;;;6.45;2.60;;;8.30;81.10;;;;;;5095207;28;20069;-69
2023/10/17 00:38:07;;;;;;;4.00;2.47;;;8.20;81.20;;;;;;5094833;28;20084;-68
2023/10/17 00:40:49;;;;;;;6.05;2.70;;;8.20;81.20;;;;;;5095207;28;20032;-68
2023/10/17 00:43:15;;;;;;;6.00;2.55;;;8.20;81.20;;;;;;5094924;28;20035;-68
2023/10/17 00:45:45;;;;;;;7.28;2.72;;;8.20;81.60;;;;;;5095130;28;20028;-68
2023/10/17 00:48:18;;;;;;;8.70;2.58;;;8.20;82.00;;;;;;5094872;28;20028;-68
2023/10/17 00:50:50;;;;;;;9.27;2.70;;;8.20;81.30;;;;;;5094892;28;20032;-68
2023/10/17 00:53:16;;;;;;;6.95;2.72;;;8.20;81.00;;;;;;5093526;28;20027;-69
2023/10/17 00:56:06;;;;;;;5.90;2.60;;;8.20;81.00;;;;;;5094760;28;20060;-68
2023/10/17 00:58:29;;;;;;;7.05;2.70;;;8.20;81.00;;;;;;5094523;28;20052;-68
2023/10/17 01:03:58;;;;;;;6.13;3.03;;;8.20;81.10;;;;;;5051854;28;20469;-69
2023/10/17 01:06:36;;;;;;;5.38;3.03;;;8.20;81.20;;;;;;5086099;28;20039;-68
2023/10/17 01:09:09;;;;;;;9.50;2.92;;;8.10;81.60;;;;;;5094449;28;20028;-69
2023/10/17 01:11:38;;;;;;;7.00;2.75;;;8.10;81.50;;;;;;5095163;28;20024;-69
2023/10/17 01:14:05;;;;;;;7.95;3.00;;;8.10;81.30;;;;;;5094179;28;20032;-69
2023/10/17 01:16:34;;;;;;;7.60;3.20;;;8.10;81.80;;;;;;5093217;28;20028;-68
2023/10/17 01:19:04;;;;;;;10.48;3.22;;;8.00;81.90;;;;;;5094206;28;20067;-70
2023/10/17 01:21:30;;;;;;;5.90;3.08;;;8.00;81.70;;;;;;5094790;28;20028;-68
2023/10/17 01:23:56;;;;;;;5.15;2.85;;;8.00;82.30;;;;;;5093841;28;20016;-69
2023/10/17 01:26:23;;;;;;;5.00;2.72;;;8.00;82.50;;;;;;5094294;28;20036;-68
2023/10/17 01:28:50;;;;;;;8.38;2.67;;;8.00;82.20;;;;;;5094220;28;20039;-68
2023/10/17 01:31:16;;;;;;;5.28;3.08;;;8.00;82.30;;;;;;5073701;28;20099;-69
2023/10/17 01:33:43;;;;;;;7.30;3.20;;;8.00;82.70;;;;;;5074035;28;20058;-67
2023/10/17 01:36:10;;;;;;;6.75;3.10;;;7.90;82.50;;;;;;5073290;28;20031;-68
2023/10/17 01:38:36;;;;;;;7.15;2.92;;;7.90;82.90;;;;;;5073984;28;20035;-68
2023/10/17 01:41:01;;;;;;;4.82;2.60;;;7.90;83.00;;;;;;5073343;28;20032;-69
2023/10/17 01:43:30;;;;;;;12.55;3.00;;;7.90;83.70;;;;;;5073993;28;20056;-68
2023/10/17 01:46:01;;;;;;;6.10;2.90;;;7.90;83.30;;;;;;5073757;28;20029;-67
2023/10/17 01:48:27;;;;;;;7.20;2.92;;;7.90;83.40;;;;;;5073596;28;20465;-69
2023/10/17 01:50:53;;;;;;;7.68;3.20;;;7.80;83.40;;;;;;5075999;28;20082;-69
2023/10/17 01:53:19;;;;;;;5.20;2.83;;;7.80;83.80;;;;;;5072934;28;20036;-69
2023/10/17 01:56:02;;;;;;;6.47;3.20;;;7.80;84.10;;;;;;5082162;28;20032;-68
2023/10/17 01:58:29;;;;;;;5.28;2.75;;;7.80;84.10;;;;;;5073246;28;20051;-68
2023/10/17 02:00:57;;;;;;;7.28;2.78;;;7.80;84.40;;;;;;5072975;28;20028;-69
2023/10/17 02:03:23;;;;;;;7.00;3.15;;;7.80;84.50;;;;;;5073023;28;20020;-69
2023/10/17 02:05:48;;;;;;;4.22;2.60;;;7.70;84.70;;;;;;5073350;28;20029;-68
2023/10/17 02:08:14;;;;;;;7.97;3.35;;;7.60;85.00;;;;;;5073053;28;20109;-68
2023/10/17 02:10:40;;;;;;;6.07;3.10;;;7.70;85.40;;;;;;5073373;28;20036;-69
2023/10/17 02:13:07;;;;;;;5.78;2.90;;;7.70;85.10;;;;;;5072886;28;20056;-68
2023/10/17 02:15:34;;;;;;;5.22;3.17;;;7.70;85.80;;;;;;5072005;28;20115;-67
2023/10/17 02:18:06;;;;;;;6.65;2.95;;;7.70;85.60;;;;;;5073073;28;20044;-71
2023/10/17 02:20:34;;;;;;;4.85;3.00;;;7.60;85.40;;;;;;5073158;28;20039;-68
2023/10/17 02:23:13;;;;;;;7.03;3.05;;;7.60;85.90;;;;;;5072935;28;20469;-71
2023/10/17 02:25:41;;;;;;;6.97;3.10;;;7.60;85.80;;;;;;5073236;28;20033;-67
2023/10/17 02:28:07;;;;;;;8.85;3.33;;;7.60;85.80;;;;;;5072755;28;20108;-67
2023/10/17 02:30:33;;;;;;;9.60;3.22;;;7.60;85.90;;;;;;5072638;28;20104;-68
2023/10/17 02:33:01;;;;;;;5.65;3.17;;;7.50;86.10;;;;;;5072847;28;20505;-67
2023/10/17 02:35:44;;;;;;;6.10;3.15;;;7.60;86.20;;;;;;5073097;28;20027;-67
2023/10/17 02:38:10;;;;;;;7.47;3.25;;;7.40;86.40;;;;;;5072614;28;20036;-67
2023/10/17 02:40:38;;;;;;;7.38;3.28;;;7.50;86.50;;;;;;5072931;28;20036;-68
2023/10/17 02:43:04;;;;;;;10.20;4.13;;;7.40;87.00;;;;;;5072533;28;20024;-69
2023/10/17 02:45:29;;;;;;;11.57;3.83;;;7.40;87.50;;;;;;5072809;28;20116;-68
2023/10/17 02:47:57;;;;;;;5.55;3.03;;;7.30;87.90;;;;;;5071276;28;20056;-69
2023/10/17 02:52:55;;;;;;;5.43;3.28;;;7.20;88.70;;;;;;5072530;28;20033;-68
2023/10/17 02:55:24;;;;;;;6.38;3.45;;;7.30;89.20;;;;;;5070802;28;20475;-69
2023/10/17 02:57:53;;;;;;;6.93;3.35;;;7.20;89.50;;;;;;5080297;28;20055;-69
2023/10/17 03:00:22;;;;;;;11.40;3.35;;;7.20;90.00;;;;;;5092180;28;20024;-68
2023/10/17 03:02:58;;;;;;;6.95;3.28;;;7.20;90.10;;;;;;5092634;28;20093;-68
2023/10/17 03:05:25;;;;;;;8.90;3.33;;;7.10;90.30;;;;;;5092179;28;20028;-69
2023/10/17 03:07:51;;;;;;;7.15;3.28;;;7.10;90.40;;;;;;5092461;28;20127;-69
2023/10/17 03:10:21;;;;;;;8.05;3.20;;;7.10;90.50;;;;;;5091806;28;20047;-69
2023/10/17 03:12:55;;;;;;;8.70;3.67;;;7.10;90.60;;;;;;5092519;28;20523;-67
2023/10/17 03:15:23;;;;;;;11.75;4.15;;;7.10;90.80;;;;;;5091964;28;20028;-68
2023/10/17 03:18:00;;;;;;;6.28;3.47;;;7.00;91.00;;;;;;5092180;28;20036;-67
2023/10/17 03:20:36;;;;;;;14.95;3.80;;;7.00;91.20;;;;;;5091908;28;20024;-69
2023/10/17 03:23:03;;;;;;;9.25;4.00;;;7.00;91.50;;;;;;5092010;28;20028;-69
2023/10/17 03:25:36;;;;;;;8.70;4.28;;;7.00;91.80;;;;;;5092165;28;20489;-67
2023/10/17 03:28:04;;;;;;;8.77;4.30;;;7.00;91.70;;;;;;5091314;28;20376;-68
2023/10/17 03:30:30;;;;;;;7.28;3.97;;;7.00;91.90;;;;;;5091893;28;20031;-70
2023/10/17 03:35:25;;;;;;;7.45;3.60;;;7.00;92.20;;;;;;5091685;28;20083;-68
2023/10/17 03:37:50;;;;;;;5.95;4.00;;;7.00;92.40;;;;;;5091941;28;20032;-69
2023/10/17 03:40:19;;;;;;;10.00;4.25;;;7.00;92.40;;;;;;5091111;28;20028;-68
2023/10/17 03:42:53;;;;;;;9.15;3.38;;;7.00;92.50;;;;;;5091686;28;20016;-69
2023/10/17 03:48:13;;;;;;;9.18;4.05;;;6.90;92.80;;;;;;5091907;28;20055;-68
2023/10/17 03:53:14;;;;;;;9.57;4.28;;;6.80;93.10;;;;;;5088575;28;20047;-69
2023/10/17 03:55:42;;;;;;;10.85;4.95;;;6.80;93.30;;;;;;5090879;28;20043;-67
2023/10/17 03:58:25;;;;;;;6.05;3.60;;;6.70;93.60;;;;;;5091602;28;20055;-67
2023/10/17 04:00:52;;;;;;;9.05;4.40;;;6.80;93.70;;;;;;5088456;28;20491;-68
2023/10/17 04:06:40;;;;;;;9.27;4.05;;;6.70;93.60;;;;;;5093403;28;20028;-67
2023/10/17 04:08:50;;;;;;;6.38;3.72;;;6.70;94.00;;;;;;5087554;28;20040;-68
2023/10/17 04:13:52;;;;;;;10.65;3.88;;;6.80;94.30;;;;;;5095846;28;20028;-68
2023/10/17 04:16:34;;;;;;;8.13;4.43;;;6.80;94.40;;;;;;5095597;28;20031;-69
2023/10/17 04:19:00;;;;;;;9.55;4.50;;;6.80;94.70;;;;;;5095865;28;20036;-69
2023/10/17 04:21:37;;;;;;;9.73;4.50;;;6.80;94.60;;;;;;5093660;28;20040;-68
2023/10/17 04:24:06;;;;;;;19.23;4.72;;;6.80;94.60;;;;;;5095763;28;20389;-68
2023/10/17 04:26:35;;;;;;;8.50;4.07;;;6.80;94.60;;;;;;5095187;28;20480;-68
2023/10/17 04:29:17;;;;;;;8.90;4.03;;;6.80;94.40;;;;;;5095706;28;20032;-67
2023/10/17 04:31:43;;;;;;;14.07;6.78;;;6.80;94.40;;;;;;5095362;28;20020;-70
2023/10/17 04:34:14;;;;;;;7.78;4.25;;;6.80;94.40;;;;;;5095050;28;20024;-68
2023/10/17 04:36:41;;;;;;;8.15;4.10;;;6.80;94.10;;;;;;5095382;28;20415;-68
2023/10/17 04:44:32;;;;;;;7.47;4.88;;;6.60;94.10;;;;;;5094984;28;20461;-67
2023/10/17 04:49:26;;;;;;;8.27;4.43;;;6.60;94.60;;;;;;5094665;28;20043;-70
2023/10/17 04:52:01;;;;;;;9.57;4.93;;;6.60;94.60;;;;;;5094656;28;20028;-68
2023/10/17 04:56:55;;;;;;;10.27;4.90;;;6.50;94.60;;;;;;5094623;28;20027;-69
2023/10/17 06:19:09;;;;;;;12.90;5.93;;;6.10;95.60;;;;;;5072911;28;20040;-69
2023/10/17 06:21:39;;;;;;;9.95;6.25;;;6.10;95.90;;;;;;5072736;28;20025;-68
2023/10/17 06:24:45;;;;;;;9.35;6.00;;;6.10;96.00;;;;;;5073307;28;20083;-67
2023/10/17 06:26:59;;;;;;;17.63;6.35;;;6.20;96.10;;;;;;5072614;28;20415;-68
2023/10/17 06:34:23;;;;;;;14.27;5.82;;;6.30;96.10;;;;;;5072268;28;20036;-68
2023/10/17 06:36:50;;;;;;;18.15;7.05;;;6.40;95.90;;;;;;5072976;28;20361;-68
2023/10/17 06:41:44;;;;;;;12.10;6.80;;;6.40;96.00;;;;;;5072188;28;20029;-69
2023/10/17 06:44:14;;;;;;;15.35;6.22;;;6.50;96.30;;;;;;5072727;28;20063;-68
2023/10/17 06:46:48;;;;;;;14.63;6.88;;;6.50;96.50;;;;;;5072479;28;20032;-68
2023/10/17 06:54:41;;;;;;;11.77;6.57;;;7.00;96.10;;;;;;5072237;28;20475;-68
2023/10/17 06:57:24;;;;;;;11.32;6.55;;;7.20;95.80;;;;;;5072633;28;20032;-68
2023/10/17 06:59:54;;;;;;;13.95;7.10;;;7.30;95.20;;;;;;5072946;28;20056;-67
2023/10/17 07:02:30;;;;;;;16.73;7.18;;;7.50;94.70;;;;;;5072626;28;20036;-68
2023/10/17 07:05:00;;;;;;;14.48;6.53;;;7.60;94.20;;;;;;5072580;28;20109;-69
2023/10/17 07:07:38;;;;;;;12.52;7.22;;;7.80;93.20;;;;;;5070882;28;20107;-68
2023/10/17 07:10:37;;;;;;;15.38;6.88;;;7.90;92.80;;;;;;5072705;28;20035;-67
2023/10/17 07:13:41;;;;;;;15.63;6.60;;;8.00;92.10;;;;;;5072303;28;20103;-68
2023/10/17 07:16:16;;;;;;;13.18;6.63;;;8.20;92.40;;;;;;5072444;28;20032;-68
2023/10/17 07:18:47;;;;;;;15.98;6.80;;;8.20;91.80;;;;;;5072146;28;20074;-69
2023/10/17 07:21:17;;;;;;;12.00;5.70;;;8.30;91.70;;;;;;5072504;28;20029;-69
2023/10/17 07:23:45;;;;;;;10.57;6.30;;;8.30;91.40;;;;;;5070903;28;20086;-69
2023/10/17 07:28:57;;;;;;;19.25;7.45;;;8.40;91.30;;;;;;5072474;28;20028;-69
2023/10/17 07:31:23;;;;;;;11.82;7.00;;;8.50;90.80;;;;;;5072372;28;20480;-68
2023/10/17 07:34:33;;;;;;;12.63;7.00;;;8.50;90.50;;;;;;5072661;28;20064;-69
2023/10/17 07:36:38;;;;;;;9.38;6.10;;;8.70;91.10;;;;;;5066876;28;20044;-67
2023/10/17 07:39:22;;;;;;;13.85;7.05;;;9.00;90.40;;;;;;5092087;28;20101;-67
2023/10/17 07:41:58;;;;;;;10.10;6.63;;;9.30;90.00;;;;;;5096019;28;20036;-68
2023/10/17 07:44:25;;;;;;;11.00;6.47;;;9.50;87.50;;;;;;5096487;28;20035;-67
2023/10/17 07:47:19;;;;;;;11.57;7.22;;;9.70;87.10;;;;;;5096450;28;20051;-68
2023/10/17 07:49:47;;;;;;;13.18;6.40;;;9.90;86.10;;;;;;5095885;28;20043;-67
2023/10/17 07:52:15;;;;;;;11.95;6.20;;;10.20;85.00;;;;;;5096156;28;20024;-67
2023/10/17 07:55:17;;;;;;;11.95;5.43;;;10.40;83.40;;;;;;5095678;28;20030;-69
2023/10/17 07:57:44;;;;;;;10.95;5.35;;;10.60;82.10;;;;;;5093300;28;20085;-68
2023/10/17 08:03:00;;;;;;;9.15;5.47;;;11.30;78.90;;;;;;5075920;28;20475;-68
2023/10/17 08:05:36;;;;;;;;;;;11.60;77.70;;;;;;5075880;28;20035;-70
2023/10/17 08:08:08;;;;;;;13.07;5.63;;;11.70;75.80;;;;;;5075849;28;19904;-67
2023/10/17 08:10:35;;;;;;;9.05;5.72;;;11.80;75.00;;;;;;5075178;28;20055;-67
2023/10/17 08:13:02;;;;;;;11.90;5.22;;;11.90;74.30;;;;;;5075448;28;20111;-67
2023/10/17 08:15:51;;;;;;;9.88;4.90;;;12.10;74.20;;;;;;5075229;28;20035;-69
2023/10/17 08:18:23;;;;;;;9.20;5.63;;;12.20;74.20;;;;;;5074680;28;20090;-67
2023/10/17 08:23:54;;;;;;;7.60;4.50;;;12.50;73.80;;;;;;5013173;28;20038;-68
2023/10/17 08:26:22;;;;;;;6.72;4.57;;;12.90;71.40;;;;;;5013292;28;20113;-68
2023/10/17 08:28:50;;;;;;;9.45;4.47;;;13.00;70.50;;;;;;5042624;28;20156;-68
2023/10/17 08:33:57;;;;;;;6.65;3.97;;;13.10;68.40;;;;;;5074993;28;20063;-68
2023/10/17 08:36:41;;;;;;;7.32;4.03;;;13.20;67.60;;;;;;5075417;28;20043;-68
2023/10/17 08:41:59;;;;;;;6.38;4.20;;;13.20;68.50;;;;;;5075177;28;20460;-68
2023/10/17 08:44:31;;;;;;;11.13;3.40;;;13.30;67.70;;;;;;5074994;28;20107;-68
2023/10/17 08:46:57;;;;;;;7.22;3.35;;;13.50;67.80;;;;;;5075214;28;20047;-68
2023/10/17 08:49:27;;;;;;;8.05;3.80;;;13.60;67.00;;;;;;5074579;28;20037;-68
2023/10/17 08:51:56;;;;;;;5.82;2.95;;;13.70;64.40;;;;;;5072574;28;20036;-68
2023/10/17 08:54:29;;;;;;;7.25;3.03;;;13.70;63.80;;;;;;5074824;28;20060;-67
2023/10/17 08:56:55;;;;;;;5.22;2.90;;;13.80;63.50;;;;;;5074366;28;20050;-67
2023/10/17 08:59:58;;;;;;;4.88;3.00;;;13.90;63.50;;;;;;5074706;28;20060;-67
2023/10/17 09:05:00;;;;;;;4.50;3.10;;;13.80;63.20;;;;;;5074293;28;20020;-69
2023/10/17 09:07:41;;;;;;;4.15;3.38;;;13.90;63.10;;;;;;5074603;28;20035;-68
2023/10/17 09:10:51;;;;;;;4.55;2.92;;;13.70;62.70;;;;;;5074788;28;20107;-69
2023/10/17 09:15:59;;;;;;;4.72;3.28;;;13.30;63.20;;;;;;5074023;28;20094;-68
2023/10/17 09:18:29;;;;;;;5.43;3.33;;;13.20;63.70;;;;;;5074268;28;20127;-67
2023/10/17 09:20:55;;;;;;;8.13;3.13;;;13.20;64.10;;;;;;5073537;28;20035;-69
2023/10/17 09:23:31;;;;;;;5.05;3.10;;;13.20;64.70;;;;;;5074199;28;20028;-69
2023/10/17 09:26:07;;;;;;;8.45;3.50;;;13.20;64.80;;;;;;5074352;28;20026;-68
2023/10/17 09:28:37;;;;;;;7.90;3.50;;;13.20;65.50;;;;;;5073774;28;20139;-69
2023/10/17 09:31:10;;;;;;;5.07;3.03;;;13.20;64.60;;;;;;5073822;28;20035;-68
2023/10/17 09:33:36;;;;;;;6.80;3.42;;;13.20;64.50;;;;;;5073684;28;20024;-68
2023/10/17 09:36:06;;;;;;;7.20;3.75;;;13.20;64.60;;;;;;5074065;28;20107;-68
2023/10/17 09:38:41;;;;;;;4.90;3.38;;;13.20;64.70;;;;;;5073938;28;20123;-68
2023/10/17 09:41:08;;;;;;;4.95;3.30;;;13.30;65.00;;;;;;5073681;28;20062;-68
2023/10/17 09:43:37;;;;;;;3.97;3.10;;;13.30;65.10;;;;;;5073547;28;20031;-70
2023/10/17 09:46:09;;;;;;;8.63;3.78;;;13.50;64.80;;;;;;5091460;28;20100;-69
2023/10/17 09:48:36;;;;;;;7.63;3.60;;;13.50;64.50;;;;;;5093803;28;20130;-69
2023/10/17 09:51:03;;;;;;;8.73;3.22;;;13.60;64.40;;;;;;5090543;28;20032;-69
2023/10/17 09:53:34;;;;;;;5.90;3.20;;;13.70;63.80;;;;;;5093800;28;20085;-69
2023/10/17 09:56:16;;;;;;;7.70;2.92;;;13.60;63.30;;;;;;5094149;28;20490;-68
2023/10/17 09:58:50;;;;;;;5.35;3.20;;;13.60;62.80;;;;;;5090078;28;20052;-69
2023/10/17 10:01:20;;;;;;;8.30;3.20;;;13.60;62.60;;;;;;5093965;28;20026;-67
2023/10/17 10:03:51;;;;;;;5.68;3.33;;;13.50;63.00;;;;;;5092451;28;20020;-67
2023/10/17 10:06:25;;;;;;;8.13;4.00;;;13.50;63.10;;;;;;5093843;28;20028;-68
2023/10/17 10:08:55;;;;;;;8.43;3.63;;;13.40;63.10;;;;;;5093320;28;20028;-69
2023/10/17 10:11:41;;;;;;;4.28;3.10;;;13.30;63.50;;;;;;5093552;28;20482;-69
2023/10/17 10:14:11;;;;;;;6.00;3.83;;;13.20;63.90;;;;;;5093179;28;20028;-67
2023/10/17 10:16:57;;;;;;;6.38;3.45;;;13.20;64.30;;;;;;5092880;28;20039;-68
2023/10/17 10:19:27;;;;;;;6.70;3.40;;;13.20;64.50;;;;;;5093563;28;20039;-67
2023/10/17 10:21:59;;;;;;;5.47;3.40;;;13.10;64.50;;;;;;5093071;28;20448;-67
2023/10/17 10:24:27;;;;;;;6.75;3.72;;;13.10;64.70;;;;;;5093607;28;20372;-67
2023/10/17 10:27:14;;;;;;;6.28;3.60;;;13.10;64.80;;;;;;5092969;28;20028;-67
2023/10/17 10:29:40;;;;;;;8.15;3.97;;;13.10;65.00;;;;;;5092905;28;20035;-68
2023/10/17 10:32:25;;;;;;;5.55;3.90;;;13.10;65.40;;;;;;5093280;28;20032;-68
2023/10/17 10:34:52;;;;;;;5.00;3.28;;;13.10;65.50;;;;;;5092950;28;20101;-68
2023/10/17 10:37:20;;;;;;;8.02;3.72;;;13.10;64.70;;;;;;5093471;28;20028;-69
2023/10/17 10:40:16;;;;;;;8.65;4.47;;;13.10;65.00;;;;;;5092674;28;20090;-69
2023/10/17 10:42:43;;;;;;;6.78;3.72;;;13.10;65.40;;;;;;5092816;28;20108;-69
2023/10/17 10:45:25;;;;;;;6.88;3.85;;;13.00;65.50;;;;;;5092882;28;20070;-69
2023/10/17 10:47:57;;;;;;;5.70;3.72;;;13.00;65.80;;;;;;5092675;28;20115;-69
2023/10/17 10:50:28;;;;;;;15.05;3.88;;;13.00;65.70;;;;;;5093034;28;20028;-69
2023/10/17 10:52:54;;;;;;;8.90;3.67;;;13.00;65.10;;;;;;5092679;28;20032;-68
2023/10/17 10:55:20;;;;;;;10.27;3.75;;;13.00;65.10;;;;;;5092715;28;20062;-68
2023/10/17 10:57:49;;;;;;;13.15;3.47;;;13.00;64.70;;;;;;5092491;28;20072;-68
2023/10/17 11:00:17;;;;;;;7.55;3.72;;;13.00;64.30;;;;;;5092856;28;20044;-68
2023/10/17 11:02:43;;;;;;;6.50;3.22;;;13.00;63.70;;;;;;5092354;28;20020;-69
2023/10/17 11:05:10;;;;;;;6.10;3.30;;;13.10;63.40;;;;;;5092685;28;20468;-69
2023/10/17 11:07:36;;;;;;;4.35;2.75;;;13.10;63.20;;;;;;5092812;28;20021;-68
2023/10/17 11:10:06;;;;;;;7.43;3.10;;;13.10;63.00;;;;;;5092528;28;20385;-68
2023/10/17 11:12:32;;;;;;;7.97;3.13;;;13.10;62.90;;;;;;5092729;28;20103;-68
2023/10/17 11:15:14;;;;;;;5.80;2.42;;;13.10;62.80;;;;;;5093790;28;20299;-68
2023/10/17 11:17:41;;;;;;;5.85;3.15;;;13.10;62.20;;;;;;5096676;28;20036;-70
2023/10/17 11:20:15;;;;;;;5.43;3.10;;;13.10;62.50;;;;;;5095364;28;20028;-67
2023/10/17 11:22:45;;;;;;;8.90;3.13;;;13.10;62.40;;;;;;5096625;28;20027;-72
2023/10/17 11:25:21;;;;;;;7.43;2.50;;;13.10;62.00;;;;;;5096419;28;20495;-68
2023/10/17 11:27:56;;;;;;;3.55;2.70;;;13.10;62.00;;;;;;5096234;28;20027;-68
2023/10/17 11:30:34;;;;;;;4.30;2.47;;;13.10;62.00;;;;;;5096755;28;20025;-68
2023/10/17 11:33:10;;;;;;;3.38;2.63;;;13.10;62.50;;;;;;5096367;28;20056;-68
2023/10/17 11:35:46;;;;;;;3.97;2.53;;;13.10;62.40;;;;;;5096546;28;20113;-68
2023/10/17 11:38:46;;;;;;;4.80;2.50;;;13.20;62.50;;;;;;5096579;28;20032;-67
2023/10/17 11:41:17;;;;;;;5.45;2.35;;;13.20;62.70;;;;;;5096493;28;20028;-68
2023/10/17 11:43:51;;;;;;;;;;;13.10;61.10;;;;;;5096324;28;20028;-68
2023/10/17 11:46:33;;;;;;;3.40;2.22;;;13.10;61.90;;;;;;5096227;28;20045;-68
2023/10/17 11:49:21;;;;;;;6.07;2.53;;;13.20;62.30;;;;;;5088730;28;20021;-68
2023/10/17 11:51:59;;;;;;;10.02;3.10;;;13.10;62.20;;;;;;5075467;28;20373;-67
2023/10/17 11:54:25;;;;;;;4.53;2.75;;;13.10;62.40;;;;;;5075936;28;20024;-67
2023/10/17 11:56:51;;;;;;;3.88;2.47;;;13.10;62.30;;;;;;5076091;28;20024;-69
2023/10/17 11:59:19;;;;;;;4.65;2.83;;;13.10;62.30;;;;;;5076680;28;20052;-67
2023/10/17 12:02:03;;;;;;;15.50;2.78;;;13.20;62.00;;;;;;5075243;28;20533;-69
2023/10/17 12:04:29;;;;;;;2.70;1.85;;;13.20;61.30;;;;;;5078184;28;20024;-68
2023/10/17 12:06:55;;;;;;;4.05;2.00;;;13.20;60.90;;;;;;5075410;28;20032;-68
2023/10/17 12:09:23;;;;;;;6.55;1.95;;;13.20;60.90;;;;;;5075455;28;20028;-68
2023/10/17 12:11:53;;;;;;;7.50;1.85;;;13.20;60.50;;;;;;5073900;28;20024;-68
2023/10/17 12:14:20;;;;;;;2.77;1.90;;;13.20;60.40;;;;;;5075714;28;20033;-68
2023/10/17 12:16:53;;;;;;;5.88;2.28;;;13.20;60.00;;;;;;5075164;28;20283;-69
2023/10/17 12:19:25;;;;;;;9.52;2.47;;;13.30;59.90;;;;;;5075446;28;20036;-68
2023/10/17 12:21:53;;;;;;;6.22;2.10;;;13.30;59.80;;;;;;5075141;28;20083;-68
2023/10/17 12:24:28;;;;;;;4.43;1.90;;;13.30;59.80;;;;;;5075585;28;20376;-68
2023/10/17 12:26:55;;;;;;;4.60;1.60;;;13.30;59.60;;;;;;5073868;28;20435;-68
2023/10/17 12:29:25;;;;;;;4.40;1.75;;;13.30;59.60;;;;;;5075395;28;20039;-68
2023/10/17 12:31:53;;;;;;;6.30;1.63;;;13.30;59.70;;;;;;5074931;28;20043;-67
2023/10/17 12:34:19;;;;;;;3.88;1.63;;;13.40;59.30;;;;;;5073978;28;20476;-67
2023/10/17 12:36:46;;;;;;;4.00;1.77;;;13.40;59.10;;;;;;5075233;28;20020;-67
2023/10/17 12:39:12;;;;;;;2.58;1.17;;;13.40;57.20;;;;;;5075011;28;20461;-68
2023/10/17 12:41:39;;;;;;;7.18;1.83;;;13.40;56.60;;;;;;5075141;28;20131;-68
2023/10/17 12:44:05;;;;;;;2.92;1.20;;;13.40;56.70;;;;;;5074636;28;20055;-67
2023/10/17 12:46:31;;;;;;;7.28;1.45;;;13.40;55.90;;;;;;5073675;28;20415;-68
2023/10/17 12:48:57;;;;;;;4.07;1.75;;;13.40;55.80;;;;;;5074494;28;20074;-68
2023/10/17 12:51:23;;;;;;;3.97;1.50;;;13.40;55.30;;;;;;5074893;28;20033;-68
2023/10/17 12:53:49;;;;;;;4.30;1.20;;;13.40;55.40;;;;;;5074444;28;20099;-68
2023/10/17 12:56:15;;;;;;;4.47;1.52;;;13.40;55.50;;;;;;5075034;28;20103;-67
2023/10/17 12:58:41;;;;;;;3.50;1.20;;;13.40;55.40;;;;;;5074337;28;20508;-67
2023/10/17 13:01:07;;;;;;;2.80;1.20;;;13.40;55.70;;;;;;5074050;28;20056;-68
2023/10/17 13:03:34;;;;;;;3.58;1.50;;;13.40;55.10;;;;;;5074362;28;20384;-69
2023/10/17 13:06:00;;;;;;;5.28;1.48;;;13.40;55.40;;;;;;5074054;28;20064;-67
2023/10/17 13:08:26;;;;;;;2.47;1.67;;;13.40;54.90;;;;;;5074350;28;20029;-68
2023/10/17 13:10:55;;;;;;;3.10;1.25;;;13.40;54.50;;;;;;5073845;28;20051;-67
2023/10/17 13:13:24;;;;;;;2.47;1.40;;;13.40;54.60;;;;;;5074449;28;20119;-67
2023/10/17 13:15:50;;;;;;;5.88;1.33;;;13.40;55.10;;;;;;5074343;28;20119;-68
2023/10/17 13:18:16;;;;;;;3.45;1.25;;;13.30;54.90;;;;;;5074549;28;20178;-68
2023/10/17 13:20:48;;;;;;;5.53;1.33;;;13.40;55.00;;;;;;5074271;28;20036;-67
2023/10/17 13:23:16;;;;;;;4.25;1.30;;;13.30;54.80;;;;;;5074217;28;20461;-69
2023/10/17 13:25:43;;;;;;;2.67;1.13;;;13.30;54.80;;;;;;5074188;28;20024;-68
2023/10/17 13:28:12;;;;;;;4.57;1.10;;;13.30;54.80;;;;;;5073808;28;20154;-67
2023/10/17 13:30:38;;;;;;;6.65;1.55;;;13.20;54.70;;;;;;5074171;28;20035;-67
2023/10/17 13:33:04;;;;;;;4.75;1.35;;;13.20;54.60;;;;;;5073677;28;20028;-68
2023/10/17 13:35:30;;;;;;;4.57;1.30;;;13.20;55.00;;;;;;5074068;28;20035;-68
2023/10/17 13:37:58;;;;;;;3.17;1.10;;;13.20;55.30;;;;;;5071848;28;20396;-69
2023/10/17 13:40:25;;;;;;;3.90;1.17;;;13.20;55.20;;;;;;5074020;28;20070;-67
2023/10/17 13:42:55;;;;;;;3.13;1.30;;;13.20;55.30;;;;;;5072166;28;20381;-69
2023/10/17 13:45:22;;;;;;;2.83;1.05;;;13.20;55.00;;;;;;5073909;28;20024;-68
2023/10/17 13:47:52;;;;;;;5.00;1.25;;;13.10;54.50;;;;;;5090774;28;20032;-68
2023/10/17 13:50:21;;;;;;;1.55;1.00;;;13.10;54.50;;;;;;5094122;28;20111;-68
2023/10/17 13:52:48;;;;;;;2.05;1.23;;;13.10;54.10;;;;;;5093614;28;20074;-68
2023/10/17 13:55:17;;;;;;;5.03;1.10;;;13.10;53.80;;;;;;5090003;28;20026;-67
2023/10/17 13:57:42;;;;;;;3.47;1.17;;;13.10;53.80;;;;;;5093673;28;20072;-69
2023/10/17 14:00:18;;;;;;;4.18;1.33;;;13.00;53.80;;;;;;5090301;28;20476;-67
2023/10/17 14:02:44;;;;;;;3.85;1.08;;;13.00;54.00;;;;;;5093810;28;20460;-68
2023/10/17 14:05:10;;;;;;;2.17;1.00;;;13.00;53.90;;;;;;5093137;28;20392;-68
2023/10/17 14:07:38;;;;;;;3.10;1.00;;;13.00;54.20;;;;;;5093669;28;20039;-67
2023/10/17 14:10:09;;;;;;;4.50;1.20;;;13.00;54.10;;;;;;5093234;28;20115;-68
2023/10/17 14:12:39;;;;;;;3.77;1.60;;;13.00;54.50;;;;;;5093558;28;20028;-67
2023/10/17 14:15:06;;;;;;;5.18;1.20;;;12.90;54.30;;;;;;5093261;28;20028;-68
2023/10/17 14:17:32;;;;;;;3.88;1.08;;;12.90;54.30;;;;;;5092191;28;20120;-68
2023/10/17 14:20:05;;;;;;;5.75;1.00;;;12.90;54.40;;;;;;5092865;28;20467;-71
2023/10/17 14:22:38;;;;;;;4.32;1.42;;;12.90;54.50;;;;;;5093491;28;20036;-68
2023/10/17 14:25:06;;;;;;;5.22;1.02;;;12.90;54.60;;;;;;5093180;28;20192;-67
2023/10/17 14:27:32;;;;;;;1.67;1.17;;;12.90;54.90;;;;;;5093428;28;20039;-69
2023/10/17 14:29:59;;;;;;;3.00;1.02;;;12.90;55.00;;;;;;5093162;28;20039;-69
2023/10/17 14:32:26;;;;;;;3.42;1.30;;;12.80;54.40;;;;;;5093354;28;20020;-67
2023/10/17 14:34:53;;;;;;;2.10;1.13;;;12.80;54.70;;;;;;5093355;28;20364;-67
2023/10/17 14:37:20;;;;;;;2.35;0.98;;;12.80;54.40;;;;;;5092956;28;20470;-69
2023/10/17 14:39:46;;;;;;;2.53;1.10;;;12.80;54.20;;;;;;5093030;28;20085;-69
2023/10/17 14:42:13;;;;;;;2.40;1.10;;;12.80;54.70;;;;;;5092624;28;20460;-69
2023/10/17 14:44:41;;;;;;;3.03;1.15;;;12.70;54.80;;;;;;5093219;28;20074;-68
2023/10/17 14:47:07;;;;;;;2.95;1.05;;;12.80;55.00;;;;;;5092883;28;20020;-68
2023/10/17 14:49:32;;;;;;;3.78;1.48;;;12.70;54.90;;;;;;5092693;28;20414;-68
2023/10/17 14:51:58;;;;;;;2.25;1.05;;;12.70;55.10;;;;;;5092820;28;20393;-68
2023/10/17 14:54:24;;;;;;;2.35;1.10;;;12.70;55.00;;;;;;5091531;28;20028;-67
2023/10/17 14:56:50;;;;;;;3.08;1.20;;;12.70;55.20;;;;;;5093047;28;20032;-67
2023/10/17 14:59:17;;;;;;;4.70;1.25;;;12.60;55.80;;;;;;5092014;28;20048;-68
2023/10/17 15:01:43;;;;;;;3.08;1.40;;;12.70;55.50;;;;;;5092886;28;20380;-67
2023/10/17 15:04:10;;;;;;;3.33;1.13;;;12.60;55.80;;;;;;5092513;28;20027;-68
2023/10/17 15:06:39;;;;;;;3.78;1.10;;;12.60;55.90;;;;;;5092954;28;20024;-67
2023/10/17 15:09:06;;;;;;;2.60;1.25;;;12.60;55.80;;;;;;5092246;28;20055;-67
2023/10/17 15:11:32;;;;;;;4.60;1.20;;;12.60;56.20;;;;;;5092604;28;20089;-67
2023/10/17 15:14:01;;;;;;;6.18;1.70;;;12.60;56.20;;;;;;5092146;28;20032;-69
2023/10/17 15:16:27;;;;;;;1.23;1.13;;;12.50;56.40;;;;;;5092700;28;20024;-67
2023/10/17 15:18:54;;;;;;;3.75;1.42;;;12.50;56.60;;;;;;5092533;28;20043;-67
2023/10/17 15:21:21;;;;;;;3.67;1.40;;;12.50;56.60;;;;;;5091870;28;20054;-68
2023/10/17 15:23:47;;;;;;;2.88;1.30;;;12.50;56.80;;;;;;5092616;28;20029;-67
2023/10/17 15:26:13;;;;;;;2.17;1.17;;;12.40;57.00;;;;;;5092121;28;20028;-69
2023/10/17 15:28:41;;;;;;;5.35;1.90;;;12.40;57.10;;;;;;5092538;28;20032;-69
2023/10/17 15:31:08;;;;;;;3.45;1.40;;;12.40;57.10;;;;;;5092124;28;20099;-69